createdAt,value
2017-10-25T00:00:50.009Z,996.66
2017-10-25T00:01:50.058Z,996.70
2017-10-25T00:02:50.048Z,996.66
2017-10-25T00:03:50.035Z,996.67
2017-10-25T00:04:50.049Z,996.65
2017-10-25T00:05:50.074Z,996.65
2017-10-25T00:06:50.080Z,996.61
2017-10-25T00:07:50.112Z,996.60
2017-10-25T00:08:50.129Z,996.59
2017-10-25T00:09:50.088Z,996.56
2017-10-25T00:10:50.110Z,996.58
2017-10-25T00:11:50.121Z,996.54
2017-10-25T00:12:50.140Z,996.55
2017-10-25T00:13:50.124Z,996.50
2017-10-25T00:14:50.169Z,996.51
2017-10-25T00:15:50.145Z,996.49
2017-10-25T00:16:50.176Z,996.47
2017-10-25T00:17:50.169Z,996.45
2017-10-25T00:18:50.173Z,996.46
2017-10-25T00:19:50.199Z,996.48
2017-10-25T00:20:50.184Z,996.48
2017-10-25T00:21:50.203Z,996.47
2017-10-25T00:22:50.205Z,996.46
2017-10-25T00:23:50.246Z,996.46
2017-10-25T00:24:50.226Z,996.45
2017-10-25T00:25:50.232Z,996.45
2017-10-25T00:26:50.245Z,996.47
2017-10-25T00:27:50.247Z,996.49
2017-10-25T00:28:50.253Z,996.45
2017-10-25T00:29:50.269Z,996.48
2017-10-25T00:30:50.293Z,996.48
2017-10-25T00:31:50.301Z,996.46
2017-10-25T00:32:50.289Z,996.41
2017-10-25T00:33:50.316Z,996.42
2017-10-25T00:34:50.331Z,996.42
2017-10-25T00:35:50.330Z,996.38
2017-10-25T00:36:50.337Z,996.43
2017-10-25T00:37:50.347Z,996.44
2017-10-25T00:38:50.375Z,996.44
2017-10-25T00:39:50.386Z,996.44
2017-10-25T00:40:50.396Z,996.46
2017-10-25T00:41:50.414Z,996.47
2017-10-25T00:42:50.385Z,996.46
2017-10-25T00:43:50.380Z,996.47
2017-10-25T00:44:50.403Z,996.47
2017-10-25T00:45:50.430Z,996.47
2017-10-25T00:46:50.432Z,996.45
2017-10-25T00:47:50.419Z,996.44
2017-10-25T00:48:50.423Z,996.45
2017-10-25T00:49:50.447Z,996.41
2017-10-25T00:50:50.485Z,996.45
2017-10-25T00:51:50.525Z,996.43
2017-10-25T00:52:50.488Z,996.41
2017-10-25T00:53:50.493Z,996.42
2017-10-25T00:54:50.481Z,996.40
2017-10-25T00:55:50.487Z,996.37
2017-10-25T00:56:50.513Z,996.39
2017-10-25T00:57:50.538Z,996.33
2017-10-25T00:58:50.526Z,996.38
2017-10-25T00:59:50.555Z,996.34
2017-10-25T01:00:50.551Z,996.32
2017-10-25T01:01:50.549Z,996.33
2017-10-25T01:02:50.582Z,996.34
2017-10-25T01:03:50.570Z,996.34
2017-10-25T01:04:50.607Z,996.27
2017-10-25T01:05:50.607Z,996.30
2017-10-25T01:06:50.604Z,996.28
2017-10-25T01:07:50.617Z,996.29
2017-10-25T01:08:50.620Z,996.28
2017-10-25T01:09:50.642Z,996.27
2017-10-25T01:10:50.614Z,996.25
2017-10-25T01:11:50.651Z,996.20
2017-10-25T01:12:50.670Z,996.19
2017-10-25T01:13:50.683Z,996.13
2017-10-25T01:14:50.661Z,996.16
2017-10-25T01:15:50.695Z,996.16
2017-10-25T01:16:50.676Z,996.20
2017-10-25T01:17:50.697Z,996.23
2017-10-25T01:18:50.698Z,996.23
2017-10-25T01:19:50.723Z,996.23
2017-10-25T01:20:50.739Z,996.22
2017-10-25T01:21:50.709Z,996.19
2017-10-25T01:22:50.724Z,996.18
2017-10-25T01:23:50.730Z,996.24
2017-10-25T01:24:50.785Z,996.22
2017-10-25T01:25:50.755Z,996.28
2017-10-25T01:26:50.760Z,996.29
2017-10-25T01:27:50.795Z,996.31
2017-10-25T01:28:50.794Z,996.24
2017-10-25T01:29:50.804Z,996.27
2017-10-25T01:30:50.785Z,996.26
2017-10-25T01:31:50.846Z,996.24
2017-10-25T01:32:50.789Z,996.27
2017-10-25T01:33:50.816Z,996.27
2017-10-25T01:34:50.852Z,996.27
2017-10-25T01:35:50.846Z,996.31
2017-10-25T01:36:50.864Z,996.28
2017-10-25T01:37:50.851Z,996.29
2017-10-25T01:38:50.852Z,996.32
2017-10-25T01:39:50.889Z,996.33
2017-10-25T01:40:50.888Z,996.30
2017-10-25T01:41:50.891Z,996.33
2017-10-25T01:42:50.889Z,996.28
2017-10-25T01:43:50.915Z,996.26
2017-10-25T01:44:50.910Z,996.20
2017-10-25T01:45:50.950Z,996.19
2017-10-25T01:46:50.973Z,996.19
2017-10-25T01:47:50.930Z,996.18
2017-10-25T01:48:50.958Z,996.20
2017-10-25T01:49:50.965Z,996.17
2017-10-25T01:50:50.951Z,996.19
2017-10-25T01:51:50.978Z,996.14
2017-10-25T01:52:50.978Z,996.19
2017-10-25T01:53:51.033Z,996.20
2017-10-25T01:54:50.983Z,996.14
2017-10-25T01:55:51.002Z,996.14
2017-10-25T01:56:51.002Z,996.13
2017-10-25T01:57:51.069Z,996.13
2017-10-25T01:58:51.020Z,996.14
2017-10-25T01:59:51.047Z,996.09
2017-10-25T02:00:51.049Z,996.11
2017-10-25T02:01:51.070Z,996.14
2017-10-25T02:02:51.129Z,996.13
2017-10-25T02:03:51.062Z,996.14
2017-10-25T02:04:51.077Z,996.13
2017-10-25T02:05:51.113Z,996.18
2017-10-25T02:06:51.107Z,996.13
2017-10-25T02:07:51.126Z,996.12
2017-10-25T02:08:51.115Z,996.11
2017-10-25T02:09:51.128Z,996.12
2017-10-25T02:10:51.150Z,996.11
2017-10-25T02:11:51.164Z,996.11
2017-10-25T02:12:51.171Z,996.09
2017-10-25T02:13:51.184Z,996.10
2017-10-25T02:14:51.173Z,996.11
2017-10-25T02:15:51.170Z,996.10
2017-10-25T02:16:51.206Z,996.06
2017-10-25T02:17:51.238Z,996.13
2017-10-25T02:18:51.231Z,996.11
2017-10-25T02:19:51.240Z,996.10
2017-10-25T02:20:51.272Z,996.10
2017-10-25T02:21:51.275Z,996.10
2017-10-25T02:22:51.268Z,996.14
2017-10-25T02:23:51.264Z,996.12
2017-10-25T02:24:51.296Z,996.14
2017-10-25T02:25:51.277Z,996.13
2017-10-25T02:26:51.282Z,996.15
2017-10-25T02:27:51.331Z,996.16
2017-10-25T02:28:51.353Z,996.13
2017-10-25T02:29:51.299Z,996.16
2017-10-25T02:30:51.329Z,996.16
2017-10-25T02:31:51.362Z,996.17
2017-10-25T02:32:51.353Z,996.18
2017-10-25T02:33:51.336Z,996.15
2017-10-25T02:34:51.342Z,996.15
2017-10-25T02:35:51.355Z,996.12
2017-10-25T02:36:51.389Z,996.13
2017-10-25T02:37:51.371Z,996.14
2017-10-25T02:38:51.393Z,996.13
2017-10-25T02:39:51.399Z,996.18
2017-10-25T02:40:51.395Z,996.14
2017-10-25T02:41:51.403Z,996.07
2017-10-25T02:42:51.415Z,996.07
2017-10-25T02:43:51.461Z,996.09
2017-10-25T02:44:51.475Z,996.07
2017-10-25T02:45:51.437Z,996.02
2017-10-25T02:46:51.464Z,996.00
2017-10-25T02:47:51.486Z,996.00
2017-10-25T02:48:51.471Z,995.99
2017-10-25T02:49:51.504Z,995.99
2017-10-25T02:50:51.519Z,995.96
2017-10-25T02:51:51.489Z,995.98
2017-10-25T02:52:51.509Z,995.98
2017-10-25T02:53:51.538Z,995.98
2017-10-25T02:54:51.529Z,995.97
2017-10-25T02:55:51.527Z,995.97
2017-10-25T02:56:51.544Z,996.01
2017-10-25T02:57:51.578Z,995.98
2017-10-25T02:58:51.556Z,996.01
2017-10-25T02:59:51.559Z,995.97
2017-10-25T03:00:51.579Z,996.02
2017-10-25T03:01:51.591Z,995.99
2017-10-25T03:02:51.595Z,996.02
2017-10-25T03:03:51.624Z,996.00
2017-10-25T03:04:51.600Z,995.99
2017-10-25T03:05:51.638Z,995.99
2017-10-25T03:06:51.647Z,995.99
2017-10-25T03:07:51.636Z,996.00
2017-10-25T03:08:51.646Z,995.97
2017-10-25T03:09:51.681Z,996.02
2017-10-25T03:10:51.667Z,996.01
2017-10-25T03:11:51.711Z,996.04
2017-10-25T03:12:51.698Z,995.97
2017-10-25T03:13:51.733Z,996.00
2017-10-25T03:14:51.712Z,995.95
2017-10-25T03:15:51.706Z,995.94
2017-10-25T03:16:51.727Z,995.96
2017-10-25T03:17:51.726Z,995.91
2017-10-25T03:18:51.754Z,995.90
2017-10-25T03:19:51.743Z,995.95
2017-10-25T03:20:51.794Z,995.92
2017-10-25T03:21:51.764Z,995.95
2017-10-25T03:22:51.789Z,995.91
2017-10-25T03:23:51.800Z,995.93
2017-10-25T03:24:51.826Z,995.95
2017-10-25T03:25:51.796Z,995.96
2017-10-25T03:26:51.858Z,995.94
2017-10-25T03:27:51.849Z,995.90
2017-10-25T03:28:51.817Z,995.87
2017-10-25T03:29:51.834Z,995.88
2017-10-25T03:30:51.867Z,995.92
2017-10-25T03:31:51.862Z,995.88
2017-10-25T03:32:51.873Z,995.90
2017-10-25T03:33:51.890Z,995.87
2017-10-25T03:34:51.891Z,995.90
2017-10-25T03:35:51.899Z,995.92
2017-10-25T03:36:51.912Z,995.88
2017-10-25T03:37:51.927Z,995.92
2017-10-25T03:38:51.922Z,995.93
2017-10-25T03:39:51.917Z,995.97
2017-10-25T03:40:51.932Z,995.92
2017-10-25T03:41:51.947Z,995.93
2017-10-25T03:42:51.966Z,995.92
2017-10-25T03:43:51.968Z,995.92
2017-10-25T03:44:52.001Z,995.89
2017-10-25T03:45:52.001Z,995.87
2017-10-25T03:46:52.003Z,995.84
2017-10-25T03:47:51.997Z,995.87
2017-10-25T03:48:52.006Z,995.80
2017-10-25T03:49:52.014Z,995.75
2017-10-25T03:50:52.015Z,995.71
2017-10-25T03:51:52.048Z,995.71
2017-10-25T03:52:52.064Z,995.71
2017-10-25T03:53:52.075Z,995.69
2017-10-25T03:54:52.065Z,995.70
2017-10-25T03:55:52.104Z,995.70
2017-10-25T03:56:52.066Z,995.74
2017-10-25T03:57:52.098Z,995.76
2017-10-25T03:58:52.121Z,995.75
2017-10-25T03:59:52.095Z,995.79
2017-10-25T04:00:52.112Z,995.81
2017-10-25T04:01:52.117Z,995.78
2017-10-25T04:02:52.132Z,995.83
2017-10-25T04:03:52.146Z,995.79
2017-10-25T04:04:52.137Z,995.79
2017-10-25T04:05:52.177Z,995.82
2017-10-25T04:06:52.165Z,995.80
2017-10-25T04:07:52.180Z,995.80
2017-10-25T04:08:52.204Z,995.81
2017-10-25T04:09:52.193Z,995.76
2017-10-25T04:10:52.200Z,995.77
2017-10-25T04:11:52.192Z,995.73
2017-10-25T04:12:52.200Z,995.77
2017-10-25T04:13:52.226Z,995.73
2017-10-25T04:14:52.212Z,995.73
2017-10-25T04:15:52.267Z,995.76
2017-10-25T04:16:52.257Z,995.70
2017-10-25T04:17:52.236Z,995.75
2017-10-25T04:18:52.249Z,995.78
2017-10-25T04:19:52.267Z,995.74
2017-10-25T04:20:52.273Z,995.75
2017-10-25T04:21:52.288Z,995.78
2017-10-25T04:22:52.288Z,995.77
2017-10-25T04:23:52.309Z,995.78
2017-10-25T04:24:52.296Z,995.78
2017-10-25T04:25:52.325Z,995.78
2017-10-25T04:26:52.321Z,995.78
2017-10-25T04:27:52.325Z,995.73
2017-10-25T04:28:52.334Z,995.70
2017-10-25T04:29:52.360Z,995.68
2017-10-25T04:30:52.348Z,995.67
2017-10-25T04:31:52.383Z,995.74
2017-10-25T04:32:52.387Z,995.72
2017-10-25T04:33:52.362Z,995.70
2017-10-25T04:34:52.380Z,995.71
2017-10-25T04:35:52.423Z,995.66
2017-10-25T04:36:52.390Z,995.65
2017-10-25T04:37:52.413Z,995.63
2017-10-25T04:38:52.437Z,995.60
2017-10-25T04:39:52.405Z,995.60
2017-10-25T04:40:52.433Z,995.58
2017-10-25T04:41:52.444Z,995.53
2017-10-25T04:42:52.435Z,995.58
2017-10-25T04:43:52.436Z,995.56
2017-10-25T04:44:52.481Z,995.61
2017-10-25T04:45:52.482Z,995.61
2017-10-25T04:46:52.474Z,995.65
2017-10-25T04:47:52.492Z,995.65
2017-10-25T04:48:52.503Z,995.64
2017-10-25T04:49:52.497Z,995.68
2017-10-25T04:50:52.531Z,995.70
2017-10-25T04:51:52.525Z,995.70
2017-10-25T04:52:52.515Z,995.69
2017-10-25T04:53:52.558Z,995.67
2017-10-25T04:54:52.561Z,995.67
2017-10-25T04:55:52.550Z,995.67
2017-10-25T04:56:52.545Z,995.63
2017-10-25T04:57:52.548Z,995.64
2017-10-25T04:58:52.568Z,995.65
2017-10-25T04:59:52.598Z,995.63
2017-10-25T05:00:52.617Z,995.63
2017-10-25T05:01:52.605Z,995.57
2017-10-25T05:02:52.621Z,995.53
2017-10-25T05:03:52.594Z,995.49
2017-10-25T05:04:52.612Z,995.47
2017-10-25T05:05:52.634Z,995.49
2017-10-25T05:06:52.633Z,995.50
2017-10-25T05:07:52.670Z,995.55
2017-10-25T05:08:52.673Z,995.59
2017-10-25T05:09:52.689Z,995.58
2017-10-25T05:10:52.684Z,995.58
2017-10-25T05:11:52.692Z,995.57
2017-10-25T05:12:52.684Z,995.53
2017-10-25T05:13:52.737Z,995.55
2017-10-25T05:14:52.690Z,995.55
2017-10-25T05:15:52.733Z,995.54
2017-10-25T05:16:52.742Z,995.57
2017-10-25T05:17:52.725Z,995.51
2017-10-25T05:18:52.747Z,995.55
2017-10-25T05:19:52.783Z,995.54
2017-10-25T05:20:52.799Z,995.51
2017-10-25T05:21:52.806Z,995.59
2017-10-25T05:22:52.816Z,995.56
2017-10-25T05:23:52.825Z,995.59
2017-10-25T05:24:52.822Z,995.56
2017-10-25T05:25:52.815Z,995.58
2017-10-25T05:26:52.788Z,995.57
2017-10-25T05:27:52.804Z,995.61
2017-10-25T05:28:52.795Z,995.63
2017-10-25T05:29:52.806Z,995.60
2017-10-25T05:30:52.827Z,995.59
2017-10-25T05:31:52.825Z,995.57
2017-10-25T05:32:52.853Z,995.56
2017-10-25T05:33:52.830Z,995.60
2017-10-25T05:34:52.872Z,995.59
2017-10-25T05:35:52.855Z,995.62
2017-10-25T05:36:52.885Z,995.57
2017-10-25T05:37:52.889Z,995.60
2017-10-25T05:38:52.878Z,995.59
2017-10-25T05:39:52.916Z,995.61
2017-10-25T05:40:52.896Z,995.65
2017-10-25T05:41:52.899Z,995.63
2017-10-25T05:42:52.913Z,995.59
2017-10-25T05:43:52.921Z,995.57
2017-10-25T05:44:52.919Z,995.52
2017-10-25T05:45:52.959Z,995.53
2017-10-25T05:46:52.974Z,995.57
2017-10-25T05:47:52.971Z,995.54
2017-10-25T05:48:52.980Z,995.56
2017-10-25T05:49:52.959Z,995.56
2017-10-25T05:50:52.979Z,995.55
2017-10-25T05:51:52.985Z,995.60
2017-10-25T05:52:52.999Z,995.58
2017-10-25T05:53:53.018Z,995.67
2017-10-25T05:54:53.011Z,995.66
2017-10-25T05:55:53.051Z,995.71
2017-10-25T05:56:53.015Z,995.73
2017-10-25T05:57:53.038Z,995.68
2017-10-25T05:58:53.029Z,995.70
2017-10-25T05:59:53.065Z,995.69
2017-10-25T06:00:53.054Z,995.74
2017-10-25T06:01:53.065Z,995.76
2017-10-25T06:02:53.078Z,995.76
2017-10-25T06:03:53.105Z,995.78
2017-10-25T06:04:53.092Z,995.79
2017-10-25T06:05:53.104Z,995.78
2017-10-25T06:06:53.118Z,995.75
2017-10-25T06:07:53.134Z,995.76
2017-10-25T06:08:53.122Z,995.73
2017-10-25T06:09:53.169Z,995.70
2017-10-25T06:10:53.136Z,995.72
2017-10-25T06:11:53.138Z,995.72
2017-10-25T06:12:53.160Z,995.80
2017-10-25T06:13:53.153Z,995.80
2017-10-25T06:14:53.169Z,995.79
2017-10-25T06:15:53.162Z,995.81
2017-10-25T06:16:53.188Z,995.85
2017-10-25T06:17:53.220Z,995.85
2017-10-25T06:18:53.188Z,995.87
2017-10-25T06:19:53.210Z,995.89
2017-10-25T06:20:53.209Z,995.90
2017-10-25T06:21:53.241Z,995.89
2017-10-25T06:22:53.236Z,995.92
2017-10-25T06:23:53.240Z,995.92
2017-10-25T06:24:53.234Z,995.82
2017-10-25T06:25:53.254Z,995.85
2017-10-25T06:26:53.267Z,995.90
2017-10-25T06:27:53.274Z,995.87
2017-10-25T06:28:53.272Z,995.88
2017-10-25T06:29:53.266Z,995.89
2017-10-25T06:30:53.289Z,995.92
2017-10-25T06:31:53.335Z,995.96
2017-10-25T06:32:53.312Z,995.97
2017-10-25T06:33:53.314Z,995.98
2017-10-25T06:34:53.316Z,995.97
2017-10-25T06:35:53.321Z,996.00
2017-10-25T06:36:53.337Z,995.97
2017-10-25T06:37:53.338Z,995.95
2017-10-25T06:38:53.346Z,995.95
2017-10-25T06:39:53.390Z,995.93
2017-10-25T06:40:53.390Z,995.96
2017-10-25T06:41:53.372Z,995.99
2017-10-25T06:42:53.404Z,996.00
2017-10-25T06:43:53.375Z,996.02
2017-10-25T06:44:53.412Z,996.00
2017-10-25T06:45:53.423Z,996.01
2017-10-25T06:46:53.442Z,996.03
2017-10-25T06:47:53.420Z,995.95
2017-10-25T06:48:53.444Z,995.97
2017-10-25T06:49:53.447Z,995.98
2017-10-25T06:50:53.467Z,996.02
2017-10-25T06:51:53.458Z,996.02
2017-10-25T06:52:53.495Z,996.05
2017-10-25T06:53:53.468Z,996.02
2017-10-25T06:54:53.489Z,996.06
2017-10-25T06:55:53.495Z,996.07
2017-10-25T06:56:53.544Z,996.11
2017-10-25T06:57:53.500Z,996.15
2017-10-25T06:58:53.532Z,996.17
2017-10-25T06:59:53.549Z,996.18
2017-10-25T07:00:53.509Z,996.19
2017-10-25T07:01:53.535Z,996.21
2017-10-25T07:02:53.608Z,996.20
2017-10-25T07:03:53.553Z,996.19
2017-10-25T07:04:53.563Z,996.16
2017-10-25T07:05:53.560Z,996.19
2017-10-25T07:06:53.567Z,996.17
2017-10-25T07:07:53.575Z,996.17
2017-10-25T07:08:53.605Z,996.17
2017-10-25T07:09:53.577Z,996.16
2017-10-25T07:10:53.603Z,996.19
2017-10-25T07:11:53.637Z,996.17
2017-10-25T07:12:53.612Z,996.15
2017-10-25T07:13:53.638Z,996.15
2017-10-25T07:14:53.649Z,996.16
2017-10-25T07:15:53.637Z,996.16
2017-10-25T07:16:53.693Z,996.10
2017-10-25T07:17:53.672Z,996.09
2017-10-25T07:18:53.692Z,996.15
2017-10-25T07:19:53.677Z,996.14
2017-10-25T07:20:53.692Z,996.16
2017-10-25T07:21:53.685Z,996.17
2017-10-25T07:22:53.705Z,996.17
2017-10-25T07:23:53.727Z,996.24
2017-10-25T07:24:53.732Z,996.24
2017-10-25T07:25:53.721Z,996.26
2017-10-25T07:26:53.727Z,996.27
2017-10-25T07:27:53.758Z,996.30
2017-10-25T07:28:53.745Z,996.30
2017-10-25T07:29:53.753Z,996.26
2017-10-25T07:30:53.764Z,996.27
2017-10-25T07:31:53.769Z,996.30
2017-10-25T07:32:53.777Z,996.32
2017-10-25T07:33:53.815Z,996.35
2017-10-25T07:34:53.797Z,996.34
2017-10-25T07:35:53.847Z,996.34
2017-10-25T07:36:53.800Z,996.34
2017-10-25T07:37:53.824Z,996.38
2017-10-25T07:38:53.842Z,996.34
2017-10-25T07:39:53.850Z,996.31
2017-10-25T07:40:53.863Z,996.35
2017-10-25T07:41:53.854Z,996.37
2017-10-25T07:42:53.873Z,996.40
2017-10-25T07:43:53.891Z,996.38
2017-10-25T07:44:53.911Z,996.40
2017-10-25T07:45:53.929Z,996.41
2017-10-25T07:46:53.921Z,996.40
2017-10-25T07:47:53.909Z,996.41
2017-10-25T07:48:53.926Z,996.37
2017-10-25T07:49:53.970Z,996.33
2017-10-25T07:50:53.930Z,996.39
2017-10-25T07:51:53.938Z,996.39
2017-10-25T07:52:53.941Z,996.34
2017-10-25T07:53:53.955Z,996.33
2017-10-25T07:54:53.977Z,996.32
2017-10-25T07:55:53.973Z,996.32
2017-10-25T07:56:54.003Z,996.30
2017-10-25T07:57:54.004Z,996.34
2017-10-25T07:58:54.007Z,996.36
2017-10-25T07:59:54.015Z,996.36
2017-10-25T08:00:54.024Z,996.39
2017-10-25T08:01:54.068Z,996.42
2017-10-25T08:02:54.040Z,996.39
2017-10-25T08:03:54.058Z,996.37
2017-10-25T08:04:54.055Z,996.38
2017-10-25T08:05:54.085Z,996.35
2017-10-25T08:06:54.082Z,996.34
2017-10-25T08:07:54.087Z,996.38
2017-10-25T08:08:54.106Z,996.35
2017-10-25T08:09:54.108Z,996.36
2017-10-25T08:10:54.114Z,996.35
2017-10-25T08:11:54.142Z,996.37
2017-10-25T08:12:54.134Z,996.36
2017-10-25T08:13:54.153Z,996.34
2017-10-25T08:14:54.156Z,996.33
2017-10-25T08:15:54.149Z,996.32
2017-10-25T08:16:54.174Z,996.36
2017-10-25T08:17:54.190Z,996.41
2017-10-25T08:18:54.219Z,996.40
2017-10-25T08:19:54.208Z,996.46
2017-10-25T08:20:54.220Z,996.50
2017-10-25T08:21:54.248Z,996.54
2017-10-25T08:22:54.232Z,996.54
2017-10-25T08:23:54.242Z,996.57
2017-10-25T08:24:54.244Z,996.55
2017-10-25T08:25:54.296Z,996.57
2017-10-25T08:26:54.264Z,996.59
2017-10-25T08:27:54.275Z,996.54
2017-10-25T08:28:54.310Z,996.54
2017-10-25T08:29:54.328Z,996.56
2017-10-25T08:30:54.319Z,996.58
2017-10-25T08:31:54.323Z,996.57
2017-10-25T08:32:54.324Z,996.59
2017-10-25T08:33:54.350Z,996.59
2017-10-25T08:34:54.355Z,996.57
2017-10-25T08:35:54.381Z,996.55
2017-10-25T08:36:54.372Z,996.57
2017-10-25T08:37:54.381Z,996.52
2017-10-25T08:38:54.368Z,996.53
2017-10-25T08:39:54.420Z,996.51
2017-10-25T08:40:54.395Z,996.51
2017-10-25T08:41:54.429Z,996.47
2017-10-25T08:42:54.453Z,996.42
2017-10-25T08:43:54.422Z,996.47
2017-10-25T08:44:54.470Z,996.41
2017-10-25T08:45:54.461Z,996.42
2017-10-25T08:46:54.456Z,996.40
2017-10-25T08:47:54.461Z,996.47
2017-10-25T08:48:54.463Z,996.45
2017-10-25T08:49:54.521Z,996.42
2017-10-25T08:50:54.513Z,996.36
2017-10-25T08:51:54.497Z,996.41
2017-10-25T08:52:54.520Z,996.37
2017-10-25T08:53:54.533Z,996.38
2017-10-25T08:54:54.558Z,996.35
2017-10-25T08:55:54.528Z,996.40
2017-10-25T08:56:54.606Z,996.42
2017-10-25T08:57:54.575Z,996.45
2017-10-25T08:58:54.564Z,996.41
2017-10-25T08:59:54.618Z,996.39
2017-10-25T09:00:54.602Z,996.42
2017-10-25T09:01:54.635Z,996.41
2017-10-25T09:02:54.612Z,996.42
2017-10-25T09:03:54.628Z,996.35
2017-10-25T09:04:54.634Z,996.40
2017-10-25T09:05:54.665Z,996.41
2017-10-25T09:06:54.646Z,996.40
2017-10-25T09:07:54.665Z,996.42
2017-10-25T09:08:54.703Z,996.42
2017-10-25T09:09:54.687Z,996.43
2017-10-25T09:10:54.693Z,996.44
2017-10-25T09:11:54.744Z,996.47
2017-10-25T09:12:54.699Z,996.45
2017-10-25T09:13:54.713Z,996.44
2017-10-25T09:14:54.747Z,996.47
2017-10-25T09:15:54.742Z,996.45
2017-10-25T09:16:54.740Z,996.44
2017-10-25T09:17:54.763Z,996.43
2017-10-25T09:18:54.769Z,996.40
2017-10-25T09:19:54.815Z,996.39
2017-10-25T09:20:54.808Z,996.38
2017-10-25T09:21:54.789Z,996.34
2017-10-25T09:22:54.820Z,996.38
2017-10-25T09:23:54.843Z,996.38
2017-10-25T09:24:54.830Z,996.38
2017-10-25T09:25:54.853Z,996.38
2017-10-25T09:26:54.861Z,996.36
2017-10-25T09:27:54.866Z,996.36
2017-10-25T09:28:54.882Z,996.40
2017-10-25T09:29:54.909Z,996.41
2017-10-25T09:30:54.902Z,996.39
2017-10-25T09:31:54.885Z,996.37
2017-10-25T09:32:54.908Z,996.38
2017-10-25T09:33:54.909Z,996.32
2017-10-25T09:34:54.934Z,996.33
2017-10-25T09:35:54.946Z,996.37
2017-10-25T09:36:54.980Z,996.33
2017-10-25T09:37:54.975Z,996.33
2017-10-25T09:38:54.962Z,996.35
2017-10-25T09:39:54.978Z,996.41
2017-10-25T09:40:55.009Z,996.43
2017-10-25T09:41:55.003Z,996.36
2017-10-25T09:42:55.022Z,996.34
2017-10-25T09:43:55.031Z,996.32
2017-10-25T09:44:55.057Z,996.26
2017-10-25T09:45:55.047Z,996.24
2017-10-25T09:46:55.060Z,996.27
2017-10-25T09:47:55.097Z,996.23
2017-10-25T09:48:55.081Z,996.20
2017-10-25T09:49:55.090Z,996.17
2017-10-25T09:50:55.088Z,996.20
2017-10-25T09:51:55.098Z,996.20
2017-10-25T09:52:55.113Z,996.29
2017-10-25T09:53:55.136Z,996.38
2017-10-25T09:54:55.131Z,996.42
2017-10-25T09:55:55.178Z,996.43
2017-10-25T09:56:55.142Z,996.38
2017-10-25T09:57:55.166Z,996.39
2017-10-25T09:58:55.183Z,996.42
2017-10-25T09:59:55.200Z,996.47
2017-10-25T10:00:55.184Z,996.49
2017-10-25T10:01:55.229Z,996.48
2017-10-25T10:02:55.205Z,996.46
2017-10-25T10:03:55.218Z,996.45
2017-10-25T10:04:55.237Z,996.38
2017-10-25T10:05:55.254Z,996.38
2017-10-25T10:06:55.241Z,996.33
2017-10-25T10:07:55.267Z,996.33
2017-10-25T10:08:55.273Z,996.33
2017-10-25T10:09:55.279Z,996.38
2017-10-25T10:10:55.292Z,996.36
2017-10-25T10:11:55.299Z,996.35
2017-10-25T10:12:55.313Z,996.34
2017-10-25T10:13:55.319Z,996.35
2017-10-25T10:14:55.325Z,996.35
2017-10-25T10:15:55.356Z,996.36
2017-10-25T10:16:55.358Z,996.34
2017-10-25T10:17:55.391Z,996.30
2017-10-25T10:18:55.393Z,996.31
2017-10-25T10:19:55.385Z,996.34
2017-10-25T10:20:55.417Z,996.34
2017-10-25T10:21:55.425Z,996.32
2017-10-25T10:22:55.415Z,996.29
2017-10-25T10:23:55.425Z,996.32
2017-10-25T10:24:55.463Z,996.30
2017-10-25T10:25:55.459Z,996.34
2017-10-25T10:26:55.445Z,996.31
2017-10-25T10:27:55.488Z,996.34
2017-10-25T10:28:55.494Z,996.32
2017-10-25T10:29:55.545Z,996.34
2017-10-25T10:30:55.505Z,996.36
2017-10-25T10:31:55.526Z,996.33
2017-10-25T10:32:55.520Z,996.37
2017-10-25T10:33:55.539Z,996.36
2017-10-25T10:34:55.530Z,996.36
2017-10-25T10:35:55.588Z,996.34
2017-10-25T10:36:55.552Z,996.34
2017-10-25T10:37:55.615Z,996.34
2017-10-25T10:38:55.609Z,996.33
2017-10-25T10:39:55.588Z,996.28
2017-10-25T10:40:55.646Z,996.27
2017-10-25T10:41:55.609Z,996.29
2017-10-25T10:42:55.627Z,996.20
2017-10-25T10:43:55.644Z,996.23
2017-10-25T10:44:55.639Z,996.26
2017-10-25T10:45:55.673Z,996.26
2017-10-25T10:46:55.681Z,996.30
2017-10-25T10:47:55.680Z,996.33
2017-10-25T10:48:55.703Z,996.30
2017-10-25T10:49:55.705Z,996.27
2017-10-25T10:50:55.718Z,996.23
2017-10-25T10:51:55.719Z,996.27
2017-10-25T10:52:55.735Z,996.22
2017-10-25T10:53:55.726Z,996.25
2017-10-25T10:54:55.756Z,996.25
2017-10-25T10:55:55.783Z,996.21
2017-10-25T10:56:55.781Z,996.24
2017-10-25T10:57:55.819Z,996.26
2017-10-25T10:58:55.783Z,996.26
2017-10-25T10:59:55.801Z,996.24
2017-10-25T11:00:55.841Z,996.23
2017-10-25T11:01:55.825Z,996.24
2017-10-25T11:02:55.884Z,996.19
2017-10-25T11:03:55.849Z,996.20
2017-10-25T11:04:55.860Z,996.21
2017-10-25T11:05:55.859Z,996.20
2017-10-25T11:06:55.889Z,996.22
2017-10-25T11:07:55.877Z,996.15
2017-10-25T11:08:55.916Z,996.16
2017-10-25T11:09:55.901Z,996.15
2017-10-25T11:10:55.941Z,996.13
2017-10-25T11:11:55.954Z,996.14
2017-10-25T11:12:55.986Z,996.18
2017-10-25T11:13:55.966Z,996.18
2017-10-25T11:14:55.965Z,996.20
2017-10-25T11:15:55.961Z,996.22
2017-10-25T11:16:55.994Z,996.24
2017-10-25T11:17:56.006Z,996.21
2017-10-25T11:18:56.011Z,996.18
2017-10-25T11:19:56.020Z,996.19
2017-10-25T11:20:56.037Z,996.20
2017-10-25T11:21:56.062Z,996.15
2017-10-25T11:22:56.088Z,996.14
2017-10-25T11:23:56.064Z,996.09
2017-10-25T11:24:56.061Z,996.12
2017-10-25T11:25:56.125Z,996.09
2017-10-25T11:26:56.117Z,996.06
2017-10-25T11:27:56.114Z,996.04
2017-10-25T11:28:56.125Z,996.03
2017-10-25T11:29:56.122Z,995.99
2017-10-25T11:30:56.171Z,995.99
2017-10-25T11:31:56.144Z,995.91
2017-10-25T11:32:56.185Z,995.90
2017-10-25T11:33:56.206Z,995.89
2017-10-25T11:34:56.188Z,995.87
2017-10-25T11:35:56.204Z,995.86
2017-10-25T11:36:56.199Z,995.83
2017-10-25T11:37:56.226Z,995.83
2017-10-25T11:38:56.238Z,995.84
2017-10-25T11:39:56.231Z,995.79
2017-10-25T11:40:56.255Z,995.80
2017-10-25T11:41:56.295Z,995.80
2017-10-25T11:42:56.269Z,995.79
2017-10-25T11:43:56.285Z,995.75
2017-10-25T11:44:56.318Z,995.77
2017-10-25T11:45:56.298Z,995.73
2017-10-25T11:46:56.329Z,995.74
2017-10-25T11:47:56.337Z,995.79
2017-10-25T11:48:56.375Z,995.73
2017-10-25T11:49:56.381Z,995.75
2017-10-25T11:50:56.366Z,995.72
2017-10-25T11:51:56.394Z,995.70
2017-10-25T11:52:56.386Z,995.73
2017-10-25T11:53:56.393Z,995.71
2017-10-25T11:54:56.411Z,995.73
2017-10-25T11:55:56.404Z,995.72
2017-10-25T11:56:56.471Z,995.75
2017-10-25T11:57:56.470Z,995.78
2017-10-25T11:58:56.443Z,995.77
2017-10-25T11:59:56.470Z,995.81
2017-10-25T12:00:56.467Z,995.82
2017-10-25T12:01:56.504Z,995.86
2017-10-25T12:02:56.481Z,995.86
2017-10-25T12:03:56.532Z,995.87
2017-10-25T12:04:56.515Z,995.82
2017-10-25T12:05:56.538Z,995.80
2017-10-25T12:06:56.538Z,995.84
2017-10-25T12:07:56.542Z,995.80
2017-10-25T12:08:56.566Z,995.84
2017-10-25T12:09:56.590Z,995.82
2017-10-25T12:10:56.595Z,995.86
2017-10-25T12:11:56.627Z,995.87
2017-10-25T12:12:56.614Z,995.89
2017-10-25T12:13:56.638Z,995.90
2017-10-25T12:14:56.630Z,995.86
2017-10-25T12:15:56.645Z,995.84
2017-10-25T12:16:56.666Z,995.83
2017-10-25T12:17:56.656Z,995.85
2017-10-25T12:18:56.702Z,995.82
2017-10-25T12:19:56.691Z,995.81
2017-10-25T12:20:56.698Z,995.79
2017-10-25T12:21:56.713Z,995.81
2017-10-25T12:22:56.710Z,995.80
2017-10-25T12:23:56.725Z,995.80
2017-10-25T12:24:56.737Z,995.78
2017-10-25T12:25:56.760Z,995.78
2017-10-25T12:26:56.767Z,995.78
2017-10-25T12:27:56.817Z,995.73
2017-10-25T12:28:56.793Z,995.74